Palmyra, Iowa
Current Conditions -  °F | °C
As of 5:54 AM on Thursday 29 Jan 2015 (Local Time) from KDSM Reporting Station
Overcast Overcast  
Wind Chill: 25°   Ceiling: 1600
Heat Index: 36°   Visibility: 10mi
Dew Point: 30°   Wind: 21mph
Humidity: 79%   Direction: 330°NNW
Pressure: 30.07"   Gusts: NA
Location:  41.4707°N, 93.4797°W
Report Text: KDSM 291154Z 33018KT 10SM OVC016 02/M01 A3007 RMK AO2 PK WND 33031/1129 DZE37 PRESRR SLP186 P0000 60000 T00221011 10033 20022 53041
Loading
Personal Weather Stations






























Interactive Weather Map New forecast layout! Learn more

10-Day Weather Forecast

Advertisements
Track Severe Weather on mobile